Main page
METAR-TAF:

METAR-TAF

Airports :

Aden Adde International Airport

Mogadishu, Somalia

latitude: 02-02N, longitude: 045-21E, elevation: 9 m

Current weather observation

The report was made 7 hours and 22 minutes ago, at 14:00 UTC
Wind 14 kt from the East
Temperature 29°C
Humidity 62%
Pressure 1009 hPa
Visibility 10 km or more
Few clouds at a height of 2000 ft

METAR: HCMM 151400Z 08014KT 9999 FEW020 29/21 Q1009

Time: 00:22 (21:22 UTC)


TAF: missing

Weather observations and forecasts of more than 4000 airports (METAR and TAF reports).

The available stations are represented by yellow and red dots on the map.

Hover mouse over dot to see the name of the station.

Then click to see weather observations and forecasts.

To change the map : click on the green buttons with a black cross to zoom in, on the green button with a dash to zoom out, or on the green arrows for adjacent maps.


METAR-TAF: